createdAt,value
2019-04-04T00:00:10.141Z,8.30
2019-04-04T00:02:37.868Z,7.53
2019-04-04T00:05:05.849Z,8.17
2019-04-04T00:07:33.852Z,7.50
2019-04-04T00:10:02.070Z,7.70
2019-04-04T00:12:31.507Z,7.90
2019-04-04T00:15:00.001Z,7.40
2019-04-04T00:17:27.635Z,7.60
2019-04-04T00:19:55.844Z,7.50
2019-04-04T00:22:23.780Z,8.10
2019-04-04T00:24:51.888Z,7.67
2019-04-04T00:27:19.534Z,7.50
2019-04-04T00:29:47.996Z,7.60
2019-04-04T00:32:17.064Z,8.07
2019-04-04T00:34:45.317Z,8.60
2019-04-04T00:37:13.592Z,8.30
2019-04-04T00:39:41.759Z,8.77
2019-04-04T00:42:09.688Z,8.37
2019-04-04T00:44:37.597Z,8.00
2019-04-04T00:47:05.561Z,9.07
2019-04-04T00:49:35.383Z,8.70
2019-04-04T00:52:02.809Z,7.60
2019-04-04T00:54:31.100Z,9.07
2019-04-04T00:56:59.081Z,8.03
2019-04-04T00:59:27.359Z,8.57
2019-04-04T01:01:56.980Z,7.80
2019-04-04T01:04:25.129Z,9.27
2019-04-04T01:06:53.404Z,9.40
2019-04-04T01:09:22.298Z,9.13
2019-04-04T01:11:51.282Z,8.13
2019-04-04T01:14:19.839Z,8.17
2019-04-04T01:16:48.049Z,8.50
2019-04-04T01:19:16.059Z,8.20
2019-04-04T01:21:43.729Z,8.60
2019-04-04T01:24:11.952Z,8.43
2019-04-04T01:26:40.129Z,7.93
2019-04-04T01:29:10.248Z,8.73
2019-04-04T01:31:37.920Z,8.50
2019-04-04T01:34:05.820Z,8.23
2019-04-04T01:36:33.905Z,8.77
2019-04-04T01:39:02.420Z,8.40
2019-04-04T01:41:30.072Z,8.97
2019-04-04T01:44:04.811Z,8.20
2019-04-04T01:46:28.289Z,8.17
2019-04-04T01:48:56.173Z,7.70
2019-04-04T01:51:25.408Z,8.23
2019-04-04T01:53:54.664Z,7.80
2019-04-04T01:56:22.937Z,7.97
2019-04-04T01:58:51.094Z,9.00
2019-04-04T02:01:18.733Z,8.90
2019-04-04T02:03:46.713Z,8.50
2019-04-04T02:06:15.346Z,7.90
2019-04-04T02:08:43.243Z,7.73
2019-04-04T02:11:11.560Z,8.33
2019-04-04T02:13:40.899Z,7.80
2019-04-04T02:16:09.321Z,7.87
2019-04-04T02:18:37.595Z,8.00
2019-04-04T02:21:05.890Z,7.80
2019-04-04T02:23:34.078Z,7.10
2019-04-04T02:26:04.715Z,7.30
2019-04-04T02:28:31.849Z,7.87
2019-04-04T02:31:00.339Z,7.47
2019-04-04T02:33:32.225Z,7.30
2019-04-04T02:35:57.329Z,7.37
2019-04-04T02:38:28.016Z,7.50
2019-04-04T02:40:54.901Z,7.77
2019-04-04T02:43:27.222Z,8.00
2019-04-04T02:45:52.763Z,7.93
2019-04-04T02:48:23.338Z,7.67
2019-04-04T02:50:50.018Z,8.20
2019-04-04T02:53:20.318Z,7.27
2019-04-04T02:55:48.118Z,7.10
2019-04-04T02:58:16.313Z,7.93
2019-04-04T03:00:44.902Z,7.93
2019-04-04T03:03:12.537Z,8.37
2019-04-04T03:05:41.020Z,8.03
2019-04-04T03:08:09.181Z,6.73
2019-04-04T03:10:37.174Z,8.23
2019-04-04T03:13:05.097Z,8.10
2019-04-04T03:15:32.731Z,8.20
2019-04-04T03:18:03.887Z,8.20
2019-04-04T03:20:30.368Z,7.83
2019-04-04T03:23:00.531Z,7.60
2019-04-04T03:25:28.029Z,7.87
2019-04-04T03:27:58.423Z,7.67
2019-04-04T03:30:26.151Z,7.40
2019-04-04T03:32:55.405Z,7.80
2019-04-04T03:35:27.756Z,8.10
2019-04-04T03:37:53.594Z,7.83
2019-04-04T03:40:24.635Z,7.97
2019-04-04T03:42:50.955Z,8.20
2019-04-04T03:45:18.674Z,8.10
2019-04-04T03:47:46.996Z,7.87
2019-04-04T03:50:15.062Z,7.63
2019-04-04T03:52:44.571Z,7.60
2019-04-04T03:55:12.704Z,7.73
2019-04-04T03:57:40.965Z,7.60
2019-04-04T04:00:09.648Z,7.47
2019-04-04T04:02:37.621Z,7.20
2019-04-04T04:05:14.637Z,7.33
2019-04-04T04:07:41.121Z,7.47
2019-04-04T04:10:09.061Z,7.57
2019-04-04T04:12:36.994Z,7.30
2019-04-04T04:15:05.020Z,7.20
2019-04-04T04:17:36.081Z,7.20
2019-04-04T04:20:04.037Z,7.50
2019-04-04T04:22:32.794Z,7.27
2019-04-04T04:25:03.388Z,8.00
2019-04-04T04:27:30.742Z,7.83
2019-04-04T04:29:59.764Z,7.70
2019-04-04T04:32:28.368Z,7.17
2019-04-04T04:34:56.580Z,7.30
2019-04-04T04:37:24.228Z,6.97
2019-04-04T04:39:52.733Z,7.07
2019-04-04T04:42:21.277Z,7.03
2019-04-04T04:44:49.203Z,7.20
2019-04-04T04:47:16.833Z,7.17
2019-04-04T04:49:44.498Z,7.47
2019-04-04T04:52:15.173Z,7.53
2019-04-04T04:54:41.765Z,7.37
2019-04-04T04:57:14.454Z,7.80
2019-04-04T04:59:39.514Z,7.70
2019-04-04T05:02:07.417Z,7.93
2019-04-04T05:04:35.511Z,7.07
2019-04-04T05:07:03.203Z,7.73
2019-04-04T05:09:31.373Z,7.70
2019-04-04T05:11:59.015Z,7.77
2019-04-04T05:14:27.815Z,7.70
2019-04-04T05:16:57.589Z,7.43
2019-04-04T05:19:25.487Z,7.00
2019-04-04T05:21:53.491Z,7.50
2019-04-04T05:24:21.447Z,8.10
2019-04-04T05:26:49.405Z,8.00
2019-04-04T05:29:17.580Z,7.40
2019-04-04T05:31:46.200Z,7.63
2019-04-04T05:34:14.141Z,8.03
2019-04-04T05:36:41.766Z,7.43
2019-04-04T05:39:09.956Z,7.67
2019-04-04T05:41:37.674Z,6.83
2019-04-04T05:44:09.046Z,7.10
2019-04-04T05:46:35.546Z,7.30
2019-04-04T05:49:07.796Z,8.10
2019-04-04T05:51:32.839Z,8.07
2019-04-04T05:54:00.887Z,8.30
2019-04-04T05:56:28.532Z,7.60
2019-04-04T05:58:57.324Z,7.23
2019-04-04T06:01:25.355Z,7.60
2019-04-04T06:03:53.525Z,7.80
2019-04-04T06:06:21.498Z,8.00
2019-04-04T06:08:49.769Z,7.27
2019-04-04T06:11:20.894Z,7.17
2019-04-04T06:13:47.131Z,7.83
2019-04-04T06:16:18.332Z,7.83
2019-04-04T06:18:49.181Z,7.90
2019-04-04T06:21:18.573Z,8.50
2019-04-04T06:23:45.768Z,8.13
2019-04-04T06:26:13.695Z,7.97
2019-04-04T06:28:44.223Z,7.90
2019-04-04T06:31:11.032Z,8.60
2019-04-04T06:33:39.046Z,7.67
2019-04-04T06:36:06.691Z,8.07
2019-04-04T06:38:34.835Z,7.17
2019-04-04T06:41:03.208Z,8.53
2019-04-04T06:43:30.956Z,8.60
2019-04-04T06:45:58.615Z,8.90
2019-04-04T06:48:28.995Z,8.20
2019-04-04T06:50:56.044Z,8.20
2019-04-04T06:53:23.935Z,8.17
2019-04-04T06:55:51.613Z,7.90
2019-04-04T06:58:19.565Z,8.37
2019-04-04T07:00:49.889Z,8.47
2019-04-04T07:03:17.121Z,8.70
2019-04-04T07:05:45.257Z,8.50
2019-04-04T07:08:14.824Z,8.67
2019-04-04T07:10:42.610Z,8.30
2019-04-04T07:13:21.571Z,9.13
2019-04-04T07:15:46.822Z,9.00
2019-04-04T07:18:10.190Z,8.60
2019-04-04T07:20:39.827Z,9.30
2019-04-04T07:23:07.484Z,8.83
2019-04-04T07:25:36.120Z,9.23
2019-04-04T07:28:06.197Z,9.03
2019-04-04T07:30:34.737Z,9.23
2019-04-04T07:33:02.631Z,9.87
2019-04-04T07:35:31.021Z,8.80
2019-04-04T07:37:59.049Z,8.83
2019-04-04T07:40:27.371Z,9.23
2019-04-04T07:42:55.533Z,9.53
2019-04-04T07:45:26.731Z,8.47
2019-04-04T07:47:54.431Z,9.60
2019-04-04T07:50:22.081Z,8.83
2019-04-04T07:52:50.019Z,8.83
2019-04-04T07:55:17.738Z,9.10
2019-04-04T07:57:46.168Z,8.60
2019-04-04T08:00:14.228Z,8.70
2019-04-04T08:02:41.851Z,9.10
2019-04-04T08:05:12.911Z,9.27
2019-04-04T08:07:39.147Z,9.03
2019-04-04T08:10:19.538Z,8.70
2019-04-04T08:12:37.249Z,8.50
2019-04-04T08:15:05.256Z,9.30
2019-04-04T08:17:32.901Z,9.40
2019-04-04T08:20:01.055Z,8.90
2019-04-04T08:22:29.033Z,8.23
2019-04-04T08:24:56.800Z,9.27
2019-04-04T08:27:25.038Z,9.80
2019-04-04T08:29:52.960Z,9.60
2019-04-04T08:32:20.599Z,8.23
2019-04-04T08:34:48.588Z,8.70
2019-04-04T08:37:16.558Z,9.50
2019-04-04T08:39:44.566Z,9.13
2019-04-04T08:42:12.665Z,8.73
2019-04-04T08:44:40.919Z,9.33
2019-04-04T08:47:08.570Z,8.80
2019-04-04T08:49:36.840Z,8.63
2019-04-04T08:52:16.145Z,8.20
2019-04-04T08:54:34.108Z,8.43
2019-04-04T08:57:01.745Z,9.10
2019-04-04T08:59:29.687Z,8.33
2019-04-04T09:01:57.317Z,8.83
2019-04-04T09:04:24.978Z,7.67
2019-04-04T09:06:52.987Z,7.80
2019-04-04T09:09:20.993Z,8.30
2019-04-04T09:11:48.640Z,8.40
2019-04-04T09:14:16.816Z,8.60
2019-04-04T09:16:45.443Z,8.40
2019-04-04T09:19:14.002Z,8.07
2019-04-04T09:21:42.209Z,7.73
2019-04-04T09:24:10.305Z,8.20
2019-04-04T09:26:38.009Z,7.90
2019-04-04T09:29:05.988Z,6.90
2019-04-04T09:31:33.960Z,6.60
2019-04-04T09:34:03.544Z,6.87
2019-04-04T09:36:32.404Z,6.43
2019-04-04T09:39:00.345Z,6.40
2019-04-04T09:41:28.572Z,6.17
2019-04-04T09:43:56.560Z,6.50
2019-04-04T09:46:24.839Z,6.97
2019-04-04T09:48:52.781Z,7.07
2019-04-04T09:51:20.721Z,6.97
2019-04-04T09:53:53.419Z,7.10
2019-04-04T09:56:18.381Z,7.20
2019-04-04T09:58:46.305Z,7.97
2019-04-04T10:01:14.217Z,7.30
2019-04-04T10:03:42.587Z,7.17
2019-04-04T10:06:10.794Z,7.93
2019-04-04T10:08:38.977Z,7.90
2019-04-04T10:11:07.545Z,8.00
2019-04-04T10:13:35.689Z,7.93
2019-04-04T10:16:03.321Z,7.70
2019-04-04T10:18:31.964Z,8.40
2019-04-04T10:21:11.240Z,7.67
2019-04-04T10:23:29.577Z,8.23
2019-04-04T10:25:57.493Z,8.20
2019-04-04T10:28:25.769Z,8.00
2019-04-04T10:30:53.741Z,7.87
2019-04-04T10:33:21.716Z,8.23
2019-04-04T10:35:49.749Z,8.00
2019-04-04T10:38:17.944Z,8.90
2019-04-04T10:40:46.266Z,8.90
2019-04-04T10:43:14.713Z,8.80
2019-04-04T10:45:43.610Z,9.07
2019-04-04T10:48:11.928Z,8.43
2019-04-04T10:50:39.562Z,8.23
2019-04-04T10:53:07.319Z,8.13
2019-04-04T10:55:35.542Z,9.13
2019-04-04T10:58:03.454Z,8.87
2019-04-04T11:00:31.330Z,9.03
2019-04-04T11:02:58.976Z,8.20
2019-04-04T11:05:26.943Z,9.50
2019-04-04T11:07:56.816Z,8.90
2019-04-04T11:10:24.386Z,8.43
2019-04-04T11:12:52.447Z,8.50
2019-04-04T11:15:20.608Z,8.60
2019-04-04T11:17:48.589Z,8.10
2019-04-04T11:20:16.548Z,7.60
2019-04-04T11:22:44.250Z,7.30
2019-04-04T11:25:12.441Z,7.40
2019-04-04T11:27:40.712Z,7.80
2019-04-04T11:30:09.504Z,7.90
2019-04-04T11:32:37.578Z,8.10
2019-04-04T11:35:05.548Z,7.90
2019-04-04T11:37:33.564Z,7.60
2019-04-04T11:40:01.465Z,8.20
2019-04-04T11:42:29.785Z,9.33
2019-04-04T11:44:57.815Z,10.10
2019-04-04T11:47:26.321Z,6.80
2019-04-04T11:49:54.495Z,6.30
2019-04-04T11:52:22.156Z,6.90
2019-04-04T11:55:00.350Z,7.80
2019-04-04T11:57:28.441Z,5.40
2019-04-04T11:59:56.206Z,5.47
2019-04-04T12:02:25.189Z,5.43
2019-04-04T12:04:53.157Z,5.13
2019-04-04T12:07:21.752Z,5.37
2019-04-04T12:09:49.384Z,4.50
2019-04-04T12:12:17.292Z,4.63
2019-04-04T12:14:45.237Z,4.30
2019-04-04T12:17:12.881Z,4.50
2019-04-04T12:19:40.495Z,5.77
2019-04-04T12:22:08.383Z,4.53
2019-04-04T12:24:36.377Z,4.60
2019-04-04T12:27:03.992Z,4.50
2019-04-04T12:29:32.334Z,5.20
2019-04-04T12:32:00.671Z,5.07
2019-04-04T12:34:28.655Z,5.00
2019-04-04T12:36:56.632Z,4.70
2019-04-04T12:39:24.334Z,5.07
2019-04-04T12:41:52.601Z,4.40
2019-04-04T12:44:20.563Z,5.03
2019-04-04T12:46:48.566Z,4.30
2019-04-04T12:49:16.429Z,4.00
2019-04-04T12:51:44.361Z,4.30
2019-04-04T12:54:12.081Z,3.77
2019-04-04T12:56:39.996Z,4.30
2019-04-04T12:59:07.876Z,3.80
2019-04-04T13:01:35.833Z,3.60
2019-04-04T13:04:03.479Z,3.50
2019-04-04T13:06:31.784Z,3.90
2019-04-04T13:09:00.453Z,3.80
2019-04-04T13:11:28.439Z,3.70
2019-04-04T13:13:56.393Z,3.30
2019-04-04T13:16:24.381Z,3.70
2019-04-04T13:18:52.596Z,3.50
2019-04-04T13:21:21.667Z,3.70
2019-04-04T13:23:49.432Z,3.60
2019-04-04T13:26:17.364Z,3.80
2019-04-04T13:28:45.000Z,4.00
2019-04-04T13:31:12.651Z,3.50
2019-04-04T13:33:40.596Z,3.90
2019-04-04T13:36:08.607Z,3.77
2019-04-04T13:38:36.583Z,3.77
2019-04-04T13:41:04.572Z,3.83
2019-04-04T13:43:32.489Z,3.90
2019-04-04T13:46:01.011Z,4.13
2019-04-04T13:48:29.292Z,3.77
2019-04-04T13:50:56.920Z,4.50
2019-04-04T13:53:25.580Z,4.20
2019-04-04T13:55:54.449Z,4.40
2019-04-04T13:58:22.970Z,4.30
2019-04-04T14:00:51.004Z,4.40
2019-04-04T14:03:19.056Z,4.80
2019-04-04T14:05:47.041Z,5.30
2019-04-04T14:08:15.271Z,4.80
2019-04-04T14:10:43.241Z,4.23
2019-04-04T14:13:11.995Z,4.80
2019-04-04T14:15:40.597Z,5.07
2019-04-04T14:18:24.282Z,4.33
2019-04-04T14:21:02.906Z,5.10
2019-04-04T14:23:22.679Z,5.23
2019-04-04T14:25:50.961Z,5.20
2019-04-04T14:28:18.611Z,5.50
2019-04-04T14:30:46.241Z,5.50
2019-04-04T14:33:14.760Z,5.73
2019-04-04T14:35:42.383Z,5.37
2019-04-04T14:38:10.315Z,5.40
2019-04-04T14:40:38.462Z,4.60
2019-04-04T14:43:06.116Z,5.07
2019-04-04T14:45:37.037Z,5.20
2019-04-04T14:48:04.925Z,6.20
2019-04-04T14:50:32.572Z,5.70
2019-04-04T14:53:00.200Z,5.77
2019-04-04T14:55:28.846Z,4.83
2019-04-04T14:57:56.463Z,5.00
2019-04-04T15:00:24.401Z,4.90
2019-04-04T15:02:52.109Z,5.50
2019-04-04T15:05:19.766Z,5.47
2019-04-04T15:07:47.921Z,5.70
2019-04-04T15:10:16.365Z,6.40
2019-04-04T15:12:44.339Z,6.23
2019-04-04T15:15:12.354Z,5.83
2019-04-04T15:17:40.032Z,6.63
2019-04-04T15:20:07.692Z,6.90
2019-04-04T15:22:35.952Z,6.43
2019-04-04T15:25:03.698Z,6.00
2019-04-04T15:27:31.608Z,5.80
2019-04-04T15:29:59.777Z,6.50
2019-04-04T15:32:27.773Z,6.20
2019-04-04T15:34:55.397Z,6.00
2019-04-04T15:37:23.598Z,6.00
2019-04-04T15:39:51.220Z,6.47
2019-04-04T15:42:19.127Z,7.03
2019-04-04T15:44:46.762Z,6.63
2019-04-04T15:47:15.282Z,6.80
2019-04-04T15:49:43.554Z,7.03
2019-04-04T15:52:11.172Z,6.70
2019-04-04T15:54:39.383Z,6.47
2019-04-04T15:57:07.399Z,6.27
2019-04-04T15:59:36.147Z,7.10
2019-04-04T16:02:04.111Z,6.77
2019-04-04T16:04:32.070Z,6.17
2019-04-04T16:06:59.716Z,6.70
2019-04-04T16:09:27.713Z,6.27
2019-04-04T16:11:55.943Z,6.00
2019-04-04T16:14:24.199Z,6.10
2019-04-04T16:16:52.544Z,5.87
2019-04-04T16:19:20.858Z,5.90
2019-04-04T16:21:49.052Z,5.60
2019-04-04T16:24:16.707Z,6.07
2019-04-04T16:26:44.858Z,6.03
2019-04-04T16:29:12.475Z,6.63
2019-04-04T16:31:40.114Z,6.33
2019-04-04T16:34:08.066Z,6.50
2019-04-04T16:36:36.096Z,6.57
2019-04-04T16:39:05.356Z,6.30
2019-04-04T16:41:32.978Z,5.90
2019-04-04T16:44:00.861Z,7.70
2019-04-04T16:46:28.806Z,7.07
2019-04-04T16:48:57.173Z,6.00
2019-04-04T16:51:25.080Z,6.67
2019-04-04T16:53:52.749Z,6.43
2019-04-04T16:56:21.281Z,7.00
2019-04-04T16:58:48.931Z,6.20
2019-04-04T17:01:17.824Z,6.87
2019-04-04T17:03:45.793Z,6.40
2019-04-04T17:06:13.778Z,7.10
2019-04-04T17:08:42.112Z,6.90
2019-04-04T17:11:10.353Z,7.23
2019-04-04T17:13:38.699Z,7.90
2019-04-04T17:16:06.585Z,8.43
2019-04-04T17:18:34.238Z,9.10
2019-04-04T17:21:02.205Z,8.57
2019-04-04T17:23:30.077Z,7.73
2019-04-04T17:25:58.060Z,8.00
2019-04-04T17:28:26.094Z,7.80
2019-04-04T17:30:54.072Z,7.50
2019-04-04T17:33:22.971Z,8.27
2019-04-04T17:35:51.028Z,8.30
2019-04-04T17:38:19.339Z,7.60
2019-04-04T17:40:46.974Z,8.20
2019-04-04T17:43:15.204Z,7.93
2019-04-04T17:45:42.840Z,7.60
2019-04-04T17:48:11.086Z,10.70
2019-04-04T17:50:39.222Z,16.53
2019-04-04T17:53:07.686Z,10.13
2019-04-04T17:55:36.853Z,8.80
2019-04-04T17:58:05.035Z,8.27
2019-04-04T18:00:33.115Z,7.60
2019-04-04T18:03:01.318Z,8.37
2019-04-04T18:05:29.265Z,11.00
2019-04-04T18:07:57.220Z,11.03
2019-04-04T18:10:25.305Z,11.17
2019-04-04T18:12:52.953Z,12.33
2019-04-04T18:15:21.101Z,12.30
2019-04-04T18:17:48.743Z,15.20
2019-04-04T18:20:17.862Z,12.07
2019-04-04T18:22:45.760Z,7.80
2019-04-04T18:25:13.755Z,7.80
2019-04-04T18:27:42.759Z,7.20
2019-04-04T18:30:10.737Z,7.17
2019-04-04T18:32:38.726Z,8.00
2019-04-04T18:35:08.422Z,7.23
2019-04-04T18:37:36.156Z,7.47
2019-04-04T18:40:04.885Z,7.20
2019-04-04T18:42:33.652Z,7.93
2019-04-04T18:45:01.759Z,7.93
2019-04-04T18:47:29.851Z,7.80
2019-04-04T18:49:58.067Z,8.40
2019-04-04T18:52:26.191Z,7.60
2019-04-04T18:54:53.843Z,7.17
2019-04-04T18:57:21.538Z,8.20
2019-04-04T18:59:49.790Z,7.70
2019-04-04T19:02:17.653Z,8.00
2019-04-04T19:04:45.558Z,7.67
2019-04-04T19:07:13.796Z,7.30
2019-04-04T19:09:41.693Z,9.70
2019-04-04T19:12:09.342Z,9.00
2019-04-04T19:14:37.249Z,10.40
2019-04-04T19:17:05.159Z,10.50
2019-04-04T19:19:33.745Z,9.17
2019-04-04T19:22:01.689Z,8.03
2019-04-04T19:24:29.899Z,7.53
2019-04-04T19:26:57.636Z,7.07
2019-04-04T19:29:25.278Z,7.50
2019-04-04T19:31:53.168Z,8.10
2019-04-04T19:34:21.319Z,9.27
2019-04-04T19:36:48.971Z,10.70
2019-04-04T19:39:17.704Z,8.07
2019-04-04T19:41:45.889Z,7.77
2019-04-04T19:44:13.563Z,7.23
2019-04-04T19:46:41.271Z,8.00
2019-04-04T19:49:09.500Z,8.07
2019-04-04T19:51:37.478Z,7.70
2019-04-04T19:54:05.165Z,7.70
2019-04-04T19:56:32.856Z,7.83
2019-04-04T19:59:00.950Z,8.17
2019-04-04T20:01:29.841Z,8.60
2019-04-04T20:03:57.814Z,8.60
2019-04-04T20:06:26.177Z,8.63
2019-04-04T20:08:54.779Z,8.93
2019-04-04T20:11:22.764Z,9.23
2019-04-04T20:13:50.495Z,9.17
2019-04-04T20:16:19.362Z,10.60
2019-04-04T20:18:47.580Z,9.83
2019-04-04T20:21:15.258Z,10.30
2019-04-04T20:23:43.285Z,12.67
2019-04-04T20:26:11.280Z,15.37
2019-04-04T20:28:40.255Z,11.87
2019-04-04T20:31:08.640Z,10.40
2019-04-04T20:33:36.300Z,9.80
2019-04-04T20:36:04.277Z,9.83
2019-04-04T20:38:32.353Z,9.60
2019-04-04T20:41:00.909Z,10.53
2019-04-04T20:43:28.924Z,9.37
2019-04-04T20:45:56.932Z,9.67
2019-04-04T20:48:24.863Z,9.57
2019-04-04T20:50:53.210Z,9.20
2019-04-04T20:53:22.317Z,9.97
2019-04-04T20:55:50.615Z,9.30
2019-04-04T20:58:18.268Z,9.83
2019-04-04T21:00:46.520Z,9.00
2019-04-04T21:03:14.660Z,8.80
2019-04-04T21:05:42.606Z,8.83
2019-04-04T21:08:10.535Z,8.87
2019-04-04T21:10:38.425Z,10.17
2019-04-04T21:13:06.781Z,9.10
2019-04-04T21:15:34.492Z,9.40
2019-04-04T21:18:02.128Z,8.87
2019-04-04T21:20:30.591Z,8.93
2019-04-04T21:22:59.069Z,8.97
2019-04-04T21:25:27.545Z,8.60
2019-04-04T21:27:55.468Z,8.70
2019-04-04T21:30:23.528Z,8.67
2019-04-04T21:32:51.760Z,8.77
2019-04-04T21:35:20.060Z,8.87
2019-04-04T21:37:47.711Z,8.60
2019-04-04T21:40:15.673Z,7.87
2019-04-04T21:42:43.764Z,8.63
2019-04-04T21:45:11.504Z,7.20
2019-04-04T21:47:39.645Z,7.30
2019-04-04T21:50:07.751Z,7.20
2019-04-04T21:52:35.460Z,7.67
2019-04-04T21:55:03.485Z,8.13
2019-04-04T21:57:31.127Z,7.70
2019-04-04T21:59:58.751Z,7.83
2019-04-04T22:02:26.979Z,8.20
2019-04-04T22:04:54.877Z,8.20
2019-04-04T22:07:23.125Z,6.80
2019-04-04T22:09:51.045Z,7.30
2019-04-04T22:12:18.978Z,7.23
2019-04-04T22:14:46.966Z,7.80
2019-04-04T22:17:15.219Z,7.97
2019-04-04T22:19:43.112Z,7.33
2019-04-04T22:22:11.002Z,7.23
2019-04-04T22:24:38.920Z,6.63
2019-04-04T22:27:07.180Z,6.80
2019-04-04T22:29:34.826Z,7.30
2019-04-04T22:32:02.719Z,6.63
2019-04-04T22:34:30.825Z,6.80
2019-04-04T22:36:59.048Z,6.47
2019-04-04T22:39:26.771Z,6.83
2019-04-04T22:41:54.753Z,6.43
2019-04-04T22:44:34.057Z,7.33
2019-04-04T22:46:52.349Z,7.37
2019-04-04T22:49:20.246Z,7.33
2019-04-04T22:51:48.249Z,6.53
2019-04-04T22:54:16.800Z,6.40
2019-04-04T22:56:44.432Z,6.83
2019-04-04T22:59:12.060Z,6.60
2019-04-04T23:01:39.971Z,6.50
2019-04-04T23:04:08.212Z,6.50
2019-04-04T23:06:36.843Z,6.80
2019-04-04T23:09:06.415Z,7.40
2019-04-04T23:11:34.347Z,7.80
2019-04-04T23:14:02.593Z,7.37
2019-04-04T23:16:30.484Z,7.00
2019-04-04T23:18:58.127Z,7.10
2019-04-04T23:21:25.761Z,7.20
2019-04-04T23:23:54.216Z,7.00
2019-04-04T23:26:22.132Z,6.77
2019-04-04T23:28:50.081Z,6.90
2019-04-04T23:31:17.720Z,7.87
2019-04-04T23:33:45.883Z,7.33
2019-04-04T23:36:14.108Z,8.20
2019-04-04T23:38:42.289Z,7.97
2019-04-04T23:41:10.465Z,8.23
2019-04-04T23:43:38.863Z,7.80
2019-04-04T23:46:07.215Z,7.90
2019-04-04T23:48:35.105Z,7.60
2019-04-04T23:51:03.089Z,7.70
2019-04-04T23:53:31.145Z,7.30
2019-04-04T23:55:59.124Z,7.47
2019-04-04T23:58:26.768Z,6.87
